createdAt,value
2018-10-21T00:02:08.888Z,9.39
2018-10-21T00:04:38.902Z,9.42
2018-10-21T00:07:09.199Z,9.61
2018-10-21T00:09:39.332Z,9.66
2018-10-21T00:12:09.301Z,9.57
2018-10-21T00:14:39.102Z,9.72
2018-10-21T00:17:08.902Z,9.86
2018-10-21T00:19:38.705Z,9.88
2018-10-21T00:22:08.507Z,9.89
2018-10-21T00:24:38.345Z,10.10
2018-10-21T00:27:08.341Z,10.11
2018-10-21T00:29:38.194Z,10.17
2018-10-21T00:32:08.153Z,10.13
2018-10-21T00:34:38.132Z,10.13
2018-10-21T00:37:07.994Z,10.17
2018-10-21T00:39:37.839Z,10.08
2018-10-21T00:42:08.019Z,10.07
2018-10-21T00:44:37.860Z,10.06
2018-10-21T00:47:07.770Z,9.94
2018-10-21T00:49:37.566Z,9.94
2018-10-21T00:52:08.204Z,9.74
2018-10-21T00:54:38.047Z,9.83
2018-10-21T00:57:08.115Z,9.82
2018-10-21T00:59:38.204Z,9.54
2018-10-21T01:02:08.895Z,9.37
2018-10-21T01:04:38.702Z,9.32
2018-10-21T01:07:08.554Z,9.23
2018-10-21T01:09:38.372Z,9.20
2018-10-21T01:12:08.235Z,8.98
2018-10-21T01:14:38.056Z,9.10
2018-10-21T01:17:07.934Z,8.97
2018-10-21T01:19:37.723Z,8.86
2018-10-21T01:22:07.594Z,8.88
2018-10-21T01:24:37.543Z,8.88
2018-10-21T01:27:07.783Z,8.72
2018-10-21T01:29:37.717Z,8.70
2018-10-21T01:32:07.525Z,8.59
2018-10-21T01:34:37.313Z,8.57
2018-10-21T01:37:07.905Z,8.51
2018-10-21T01:40:49.758Z,8.53
2018-10-21T01:43:21.037Z,8.28
2018-10-21T01:45:50.802Z,8.31
2018-10-21T01:48:22.192Z,8.24
2018-10-21T01:50:51.982Z,8.20
2018-10-21T01:53:22.227Z,8.26
2018-10-21T01:55:52.026Z,8.22
2018-10-21T01:58:21.771Z,8.27
2018-10-21T02:00:51.584Z,8.35
2018-10-21T02:03:21.372Z,8.25
2018-10-21T02:05:51.231Z,8.29
2018-10-21T02:08:21.025Z,8.23
2018-10-21T02:10:50.874Z,8.25
2018-10-21T02:13:20.646Z,8.26
2018-10-21T02:15:50.652Z,8.21
2018-10-21T02:18:20.468Z,8.24
2018-10-21T02:20:50.269Z,8.17
2018-10-21T02:23:20.065Z,8.14
2018-10-21T02:25:50.039Z,8.13
2018-10-21T02:28:19.918Z,8.13
2018-10-21T02:30:49.893Z,7.94
2018-10-21T02:33:19.802Z,7.90
2018-10-21T02:35:49.709Z,7.96
2018-10-21T02:38:19.609Z,7.89
2018-10-21T02:41:46.829Z,7.82
2018-10-21T02:44:18.700Z,8.06
2018-10-21T02:46:49.215Z,8.33
2018-10-21T02:49:19.661Z,8.48
2018-10-21T02:51:55.447Z,8.57
2018-10-21T02:54:30.362Z,8.68
2018-10-21T02:57:00.373Z,8.68
2018-10-21T02:59:30.334Z,8.60
2018-10-21T03:02:00.373Z,8.39
2018-10-21T03:04:30.230Z,8.53
2018-10-21T03:07:00.242Z,8.45
2018-10-21T03:09:30.555Z,8.38
2018-10-21T03:12:00.444Z,8.31
2018-10-21T03:14:30.232Z,8.32
2018-10-21T03:17:00.032Z,8.24
2018-10-21T03:19:29.806Z,8.26
2018-10-21T03:21:59.730Z,8.23
2018-10-21T03:24:29.616Z,8.22
2018-10-21T03:26:59.452Z,8.25
2018-10-21T03:29:29.225Z,8.16
2018-10-21T03:31:59.020Z,8.40
2018-10-21T03:34:28.916Z,8.56
2018-10-21T03:36:58.914Z,8.59
2018-10-21T03:39:28.732Z,8.55
2018-10-21T03:41:58.492Z,8.44
2018-10-21T03:44:28.276Z,8.43
2018-10-21T03:46:58.120Z,8.33
2018-10-21T03:49:27.922Z,8.36
2018-10-21T03:51:57.781Z,8.19
2018-10-21T03:54:27.724Z,7.88
2018-10-21T03:56:57.787Z,7.77
2018-10-21T03:59:27.622Z,7.81
2018-10-21T04:01:57.397Z,7.88
2018-10-21T04:04:27.236Z,7.79
2018-10-21T04:06:57.078Z,7.68
2018-10-21T04:09:26.954Z,7.56
2018-10-21T04:11:56.759Z,7.45
2018-10-21T04:14:26.624Z,7.46
2018-10-21T04:16:56.546Z,7.46
2018-10-21T04:19:26.376Z,7.47
2018-10-21T04:21:56.188Z,7.47
2018-10-21T04:24:26.246Z,7.39
2018-10-21T04:26:56.106Z,7.44
2018-10-21T04:29:26.043Z,7.36
2018-10-21T04:31:55.832Z,7.43
2018-10-21T04:34:25.665Z,7.46
2018-10-21T04:37:09.300Z,7.38
2018-10-21T04:39:55.863Z,7.36
2018-10-21T04:42:26.366Z,7.36
2018-10-21T04:44:56.154Z,7.35
2018-10-21T04:47:25.967Z,7.40
2018-10-21T04:49:56.019Z,7.43
2018-10-21T04:52:25.955Z,7.44
2018-10-21T04:54:57.451Z,7.45
2018-10-21T04:57:27.204Z,7.50
2018-10-21T04:59:57.085Z,7.54
2018-10-21T05:02:27.139Z,7.57
2018-10-21T05:04:56.910Z,7.59
2018-10-21T05:07:26.955Z,7.67
2018-10-21T05:09:56.991Z,7.69
2018-10-21T05:12:26.998Z,7.64
2018-10-21T05:14:56.780Z,7.71
2018-10-21T05:17:26.549Z,7.69
2018-10-21T05:19:56.498Z,7.80
2018-10-21T05:22:26.270Z,7.72
2018-10-21T05:24:56.063Z,7.77
2018-10-21T05:27:25.908Z,7.63
2018-10-21T05:29:55.689Z,7.60
2018-10-21T05:32:25.642Z,7.60
2018-10-21T05:34:55.374Z,7.63
2018-10-21T05:37:25.198Z,7.61
2018-10-21T05:39:55.073Z,7.66
2018-10-21T05:42:25.116Z,7.71
2018-10-21T05:44:54.978Z,7.80
2018-10-21T05:47:25.127Z,7.76
2018-10-21T05:49:54.939Z,7.71
2018-10-21T05:52:24.741Z,7.78
2018-10-21T05:54:54.613Z,7.72
2018-10-21T05:57:24.400Z,7.78
2018-10-21T05:59:54.187Z,7.78
2018-10-21T06:02:23.975Z,7.77
2018-10-21T06:04:54.645Z,7.80
2018-10-21T06:07:24.965Z,7.80
2018-10-21T06:09:54.834Z,7.84
2018-10-21T06:12:24.639Z,7.90
2018-10-21T06:14:54.475Z,7.86
2018-10-21T06:17:27.733Z,7.91
2018-10-21T06:20:45.937Z,7.91
2018-10-21T06:23:15.729Z,7.90
2018-10-21T06:25:45.540Z,7.91
2018-10-21T06:28:15.343Z,7.92
2018-10-21T06:30:45.106Z,7.88
2018-10-21T06:33:15.109Z,7.94
2018-10-21T06:35:44.973Z,7.99
2018-10-21T06:38:14.939Z,8.05
2018-10-21T06:40:44.701Z,8.08
2018-10-21T06:43:14.585Z,8.09
2018-10-21T06:45:44.463Z,8.10
2018-10-21T06:48:14.445Z,8.13
2018-10-21T06:50:44.363Z,8.21
2018-10-21T06:53:14.183Z,8.18
2018-10-21T06:55:44.282Z,8.16
2018-10-21T06:58:14.100Z,8.19
2018-10-21T07:00:43.922Z,8.18
2018-10-21T07:03:13.685Z,8.23
2018-10-21T07:06:20.081Z,8.35
2018-10-21T07:08:50.988Z,8.29
2018-10-21T07:11:20.747Z,8.27
2018-10-21T07:13:50.624Z,8.34
2018-10-21T07:16:20.579Z,8.39
2018-10-21T07:18:51.194Z,8.44
2018-10-21T07:21:21.048Z,8.43
2018-10-21T07:23:50.874Z,8.37
2018-10-21T07:26:20.966Z,8.42
2018-10-21T07:28:51.588Z,8.42
2018-10-21T07:31:21.353Z,8.44
2018-10-21T07:33:51.156Z,8.43
2018-10-21T07:36:20.974Z,8.53
2018-10-21T07:38:50.907Z,8.50
2018-10-21T07:41:20.732Z,8.55
2018-10-21T07:43:50.534Z,8.57
2018-10-21T07:46:20.330Z,8.57
2018-10-21T07:48:50.250Z,8.58
2018-10-21T07:51:20.119Z,8.75
2018-10-21T07:53:49.902Z,8.69
2018-10-21T07:56:19.734Z,8.76
2018-10-21T07:58:49.562Z,8.80
2018-10-21T08:04:55.393Z,8.92
2018-10-21T08:07:42.045Z,8.98
2018-10-21T08:10:11.948Z,9.07
2018-10-21T08:12:41.876Z,8.94
2018-10-21T08:15:11.675Z,8.91
2018-10-21T08:17:41.593Z,9.04
2018-10-21T08:20:11.415Z,9.09
2018-10-21T08:22:41.189Z,9.07
2018-10-21T08:25:10.973Z,9.08
2018-10-21T08:27:40.907Z,8.99
2018-10-21T08:30:10.691Z,8.99
2018-10-21T08:32:40.480Z,9.01
2018-10-21T08:35:10.251Z,9.05
2018-10-21T08:37:40.111Z,9.08
2018-10-21T08:40:10.064Z,9.09
2018-10-21T08:42:40.023Z,9.22
2018-10-21T08:45:10.085Z,9.23
2018-10-21T08:47:40.101Z,9.33
2018-10-21T08:50:10.961Z,9.26
2018-10-21T08:52:40.791Z,9.33
2018-10-21T08:55:11.532Z,9.43
2018-10-21T08:57:41.841Z,9.42
2018-10-21T09:00:17.144Z,9.51
2018-10-21T09:02:47.280Z,9.54
2018-10-21T09:05:18.822Z,9.55
2018-10-21T09:07:48.704Z,9.54
2018-10-21T09:10:18.894Z,9.64
2018-10-21T09:12:49.127Z,9.65
2018-10-21T09:15:20.363Z,9.74
2018-10-21T09:17:50.317Z,9.80
2018-10-21T09:20:20.290Z,9.83
2018-10-21T09:22:50.124Z,9.84
2018-10-21T09:29:43.306Z,9.95
2018-10-21T09:32:13.143Z,10.03
2018-10-21T09:34:43.052Z,10.01
2018-10-21T09:37:12.941Z,9.98
2018-10-21T09:39:43.948Z,9.97
2018-10-21T09:42:13.975Z,10.02
2018-10-21T09:44:44.022Z,10.06
2018-10-21T09:47:14.185Z,10.07
2018-10-21T09:49:44.088Z,10.02
2018-10-21T09:52:14.055Z,9.99
2018-10-21T09:54:44.263Z,10.02
2018-10-21T09:57:14.055Z,10.03
2018-10-21T09:59:43.905Z,10.08
2018-10-21T10:02:18.951Z,10.03
2018-10-21T10:04:48.852Z,10.08
2018-10-21T10:07:18.744Z,10.11
2018-10-21T10:09:48.764Z,10.18
2018-10-21T10:12:18.671Z,10.25
2018-10-21T10:14:48.489Z,10.30
2018-10-21T10:17:18.336Z,10.39
2018-10-21T10:19:48.234Z,10.40
2018-10-21T10:22:18.182Z,10.55
2018-10-21T10:24:48.150Z,10.63
2018-10-21T10:27:17.944Z,10.78
2018-10-21T10:29:47.904Z,11.03
2018-10-21T10:32:17.778Z,11.06
2018-10-21T10:34:48.250Z,11.09
2018-10-21T10:37:18.096Z,11.28
2018-10-21T10:39:48.140Z,11.26
2018-10-21T10:42:18.020Z,11.23
2018-10-21T10:44:48.092Z,11.34
2018-10-21T10:50:54.022Z,11.55
2018-10-21T10:53:23.870Z,11.73
2018-10-21T10:55:53.815Z,11.76
2018-10-21T10:58:23.647Z,11.75
2018-10-21T11:00:53.492Z,11.78
2018-10-21T11:03:23.509Z,11.95
2018-10-21T11:05:53.342Z,12.07
2018-10-21T11:08:23.338Z,12.13
2018-10-21T11:10:53.150Z,12.21
2018-10-21T11:13:23.035Z,12.26
2018-10-21T11:15:52.955Z,12.39
2018-10-21T11:18:22.803Z,12.64
2018-10-21T11:20:52.643Z,12.62
2018-10-21T11:23:22.776Z,12.59
2018-10-21T11:25:52.575Z,12.64
2018-10-21T11:28:22.584Z,12.87
2018-10-21T11:30:57.233Z,12.81
2018-10-21T11:33:27.247Z,12.77
2018-10-21T11:35:57.365Z,12.89
2018-10-21T11:38:28.066Z,12.90
2018-10-21T11:40:58.044Z,12.89
2018-10-21T11:43:27.876Z,12.81
2018-10-21T11:45:57.728Z,12.94
2018-10-21T11:48:27.718Z,13.08
2018-10-21T11:50:57.495Z,13.19
2018-10-21T11:53:27.353Z,13.29
2018-10-21T11:55:57.129Z,13.59
2018-10-21T11:58:26.939Z,13.56
2018-10-21T12:00:56.802Z,13.53
2018-10-21T12:03:27.129Z,13.63
2018-10-21T12:05:56.917Z,13.61
2018-10-21T12:08:26.701Z,13.67
2018-10-21T12:10:56.489Z,13.83
2018-10-21T12:13:26.615Z,13.91
2018-10-21T12:15:56.452Z,14.08
2018-10-21T12:18:26.662Z,14.05
2018-10-21T12:20:56.447Z,14.16
2018-10-21T12:23:26.273Z,14.19
2018-10-21T12:25:56.301Z,14.05
2018-10-21T12:28:26.096Z,14.26
2018-10-21T12:30:55.875Z,14.54
2018-10-21T12:33:25.933Z,14.61
2018-10-21T12:35:55.731Z,14.73
2018-10-21T12:38:25.980Z,14.47
2018-10-21T12:40:55.797Z,14.30
2018-10-21T12:43:25.781Z,14.35
2018-10-21T12:45:55.635Z,14.32
2018-10-21T12:48:25.652Z,14.48
2018-10-21T12:50:55.571Z,14.48
2018-10-21T12:53:25.443Z,14.72
2018-10-21T12:55:55.197Z,14.75
2018-10-21T12:58:25.004Z,14.70
2018-10-21T13:00:54.816Z,14.66
2018-10-21T13:03:24.737Z,14.76
2018-10-21T13:05:54.537Z,14.72
2018-10-21T13:08:24.337Z,14.78
2018-10-21T13:10:54.373Z,14.83
2018-10-21T13:13:24.268Z,14.84
2018-10-21T13:15:54.212Z,14.75
2018-10-21T13:18:24.029Z,14.75
2018-10-21T13:20:53.847Z,14.77
2018-10-21T13:23:23.658Z,14.80
2018-10-21T13:25:53.596Z,14.86
2018-10-21T13:28:23.514Z,14.96
2018-10-21T13:30:53.360Z,14.99
2018-10-21T13:33:23.121Z,15.03
2018-10-21T13:35:52.928Z,14.88
2018-10-21T13:38:22.788Z,14.99
2018-10-21T13:40:52.604Z,14.87
2018-10-21T13:43:22.401Z,14.77
2018-10-21T13:45:52.190Z,14.77
2018-10-21T13:48:22.176Z,14.77
2018-10-21T13:50:51.961Z,14.90
2018-10-21T13:53:21.705Z,14.95
2018-10-21T13:55:51.702Z,14.99
2018-10-21T13:58:21.516Z,14.97
2018-10-21T14:00:51.365Z,15.01
2018-10-21T14:03:21.316Z,14.94
2018-10-21T14:05:51.072Z,14.94
2018-10-21T14:08:21.270Z,14.96
2018-10-21T14:10:51.279Z,15.10
2018-10-21T14:13:21.100Z,15.14
2018-10-21T14:15:50.907Z,15.05
2018-10-21T14:18:21.167Z,14.94
2018-10-21T14:20:50.967Z,14.89
2018-10-21T14:23:20.881Z,15.00
2018-10-21T14:25:50.648Z,15.09
2018-10-21T14:28:20.454Z,15.09
2018-10-21T14:30:50.332Z,15.03
2018-10-21T14:33:20.318Z,14.97
2018-10-21T14:35:50.359Z,14.96
2018-10-21T14:38:20.249Z,15.02
2018-10-21T14:40:50.212Z,15.08
2018-10-21T14:43:20.000Z,14.94
2018-10-21T14:45:49.958Z,14.95
2018-10-21T14:48:19.855Z,14.93
2018-10-21T14:50:49.654Z,14.88
2018-10-21T14:53:19.504Z,14.80
2018-10-21T14:55:49.272Z,14.72
2018-10-21T14:58:19.119Z,14.74
2018-10-21T15:00:49.176Z,14.75
2018-10-21T15:03:19.049Z,14.73
2018-10-21T15:05:49.030Z,14.72
2018-10-21T15:08:18.931Z,14.62
2018-10-21T15:10:49.063Z,14.56
2018-10-21T15:13:18.877Z,14.49
2018-10-21T15:15:48.760Z,14.46
2018-10-21T15:18:18.713Z,14.44
2018-10-21T15:20:48.686Z,14.43
2018-10-21T15:23:18.513Z,14.30
2018-10-21T15:25:48.531Z,14.24
2018-10-21T15:28:18.368Z,14.20
2018-10-21T15:30:48.352Z,14.17
2018-10-21T15:33:18.130Z,14.12
2018-10-21T15:35:48.211Z,14.11
2018-10-21T15:38:18.291Z,14.06
2018-10-21T15:40:48.157Z,14.05
2018-10-21T15:43:18.347Z,13.99
2018-10-21T15:45:48.279Z,13.90
2018-10-21T15:48:18.372Z,13.82
2018-10-21T15:50:48.159Z,13.72
2018-10-21T15:53:17.982Z,13.68
2018-10-21T15:55:47.781Z,13.55
2018-10-21T15:58:17.673Z,13.54
2018-10-21T16:00:47.674Z,13.51
2018-10-21T16:03:17.483Z,13.44
2018-10-21T16:05:47.301Z,13.35
2018-10-21T16:08:17.128Z,13.24
2018-10-21T16:10:47.325Z,13.19
2018-10-21T16:13:17.141Z,13.07
2018-10-21T16:15:47.035Z,13.07
2018-10-21T16:18:16.951Z,12.97
2018-10-21T16:20:46.741Z,12.89
2018-10-21T16:23:16.465Z,12.81
2018-10-21T16:25:46.352Z,12.73
2018-10-21T16:28:16.343Z,12.72
2018-10-21T16:30:46.282Z,12.64
2018-10-21T16:33:16.081Z,12.62
2018-10-21T16:35:45.846Z,12.56
2018-10-21T16:38:15.801Z,12.51
2018-10-21T16:40:45.784Z,12.40
2018-10-21T16:43:15.633Z,12.32
2018-10-21T16:45:45.431Z,12.28
2018-10-21T16:48:15.322Z,12.19
2018-10-21T16:50:45.331Z,12.13
2018-10-21T16:53:15.336Z,12.03
2018-10-21T16:55:45.267Z,11.99
2018-10-21T16:58:15.037Z,11.90
2018-10-21T17:01:41.387Z,11.86
2018-10-21T17:04:11.160Z,11.90
2018-10-21T17:06:40.945Z,11.82
2018-10-21T17:09:13.140Z,11.74
2018-10-21T17:11:45.303Z,11.73
2018-10-21T17:14:15.161Z,11.59
2018-10-21T17:16:44.961Z,11.49
2018-10-21T17:19:14.843Z,11.42
2018-10-21T17:21:44.793Z,11.32
2018-10-21T17:24:14.821Z,11.23
2018-10-21T17:26:45.109Z,11.16
2018-10-21T17:29:15.000Z,11.07
2018-10-21T17:31:44.773Z,11.11
2018-10-21T17:34:14.593Z,11.04
2018-10-21T17:36:44.488Z,10.98
2018-10-21T17:39:15.611Z,10.88
2018-10-21T17:41:45.384Z,10.79
2018-10-21T17:44:15.149Z,10.76
2018-10-21T17:46:45.008Z,10.64
2018-10-21T17:49:14.953Z,10.61
2018-10-21T17:51:44.911Z,10.53
2018-10-21T17:54:14.690Z,10.54
2018-10-21T17:56:49.569Z,10.61
2018-10-21T17:59:19.506Z,10.43
2018-10-21T18:01:49.262Z,10.24
2018-10-21T18:04:19.015Z,10.18
2018-10-21T18:06:48.809Z,10.11
2018-10-21T18:09:18.743Z,10.11
2018-10-21T18:11:48.520Z,10.02
2018-10-21T18:14:18.285Z,9.92
2018-10-21T18:16:48.039Z,9.90
2018-10-21T18:19:17.913Z,9.94
2018-10-21T18:21:47.711Z,9.87
2018-10-21T18:24:17.773Z,9.81
2018-10-21T18:26:47.561Z,9.76
2018-10-21T18:29:17.488Z,9.71
2018-10-21T18:31:47.311Z,9.73
2018-10-21T18:34:17.198Z,9.68
2018-10-21T18:36:47.098Z,9.66
2018-10-21T18:39:16.838Z,9.71
2018-10-21T18:41:46.593Z,9.58
2018-10-21T18:44:16.470Z,9.54
2018-10-21T18:46:46.306Z,9.58
2018-10-21T18:49:16.240Z,9.47
2018-10-21T18:51:46.200Z,9.52
2018-10-21T18:54:16.015Z,9.48
2018-10-21T18:56:45.795Z,9.38
2018-10-21T18:59:15.591Z,9.29
2018-10-21T19:01:45.359Z,9.30
2018-10-21T19:04:15.137Z,9.27
2018-10-21T19:06:45.084Z,9.21
2018-10-21T19:09:14.856Z,9.19
2018-10-21T19:11:44.654Z,9.18
2018-10-21T19:14:14.459Z,9.19
2018-10-21T19:16:44.204Z,9.20
2018-10-21T19:19:14.197Z,9.15
2018-10-21T19:21:44.158Z,9.10
2018-10-21T19:24:13.902Z,9.17
2018-10-21T19:26:43.977Z,9.07
2018-10-21T19:29:13.959Z,9.03
2018-10-21T19:31:43.758Z,9.09
2018-10-21T19:34:13.815Z,8.98
2018-10-21T19:36:43.735Z,8.91
2018-10-21T19:39:14.162Z,8.98
2018-10-21T19:41:43.932Z,8.97
2018-10-21T19:44:13.754Z,8.90
2018-10-21T19:46:43.538Z,8.82
2018-10-21T19:49:13.374Z,8.81
2018-10-21T19:51:43.281Z,8.93
2018-10-21T19:54:13.105Z,8.83
2018-10-21T19:56:42.926Z,8.78
2018-10-21T19:59:12.780Z,8.76
2018-10-21T20:01:42.629Z,8.65
2018-10-21T20:04:12.591Z,8.73
2018-10-21T20:06:42.537Z,8.65
2018-10-21T20:09:12.331Z,8.61
2018-10-21T20:11:42.250Z,8.65
2018-10-21T20:14:12.003Z,8.62
2018-10-21T20:16:41.831Z,8.57
2018-10-21T20:19:11.653Z,8.59
2018-10-21T20:21:41.570Z,8.59
2018-10-21T20:24:11.385Z,8.66
2018-10-21T20:26:41.207Z,8.61
2018-10-21T20:29:10.992Z,8.37
2018-10-21T20:31:40.790Z,8.34
2018-10-21T20:34:10.694Z,8.37
2018-10-21T20:36:40.646Z,8.42
2018-10-21T20:39:11.023Z,8.39
2018-10-21T20:41:40.850Z,8.40
2018-10-21T20:44:10.597Z,8.42
2018-10-21T20:46:40.365Z,8.19
2018-10-21T20:49:10.125Z,8.29
2018-10-21T20:51:40.094Z,8.17
2018-10-21T20:54:09.887Z,8.26
2018-10-21T20:56:39.832Z,8.17
2018-10-21T20:59:09.605Z,8.23
2018-10-21T21:01:39.343Z,8.07
2018-10-21T21:04:09.171Z,8.03
2018-10-21T21:06:39.109Z,8.03
2018-10-21T21:09:09.952Z,8.03
2018-10-21T21:11:39.698Z,8.07
2018-10-21T21:14:09.517Z,8.09
2018-10-21T21:16:39.276Z,7.93
2018-10-21T21:19:09.087Z,7.78
2018-10-21T21:21:38.990Z,7.67
2018-10-21T21:27:45.041Z,7.55
2018-10-21T21:30:14.838Z,7.57
2018-10-21T21:32:44.749Z,7.50
2018-10-21T21:35:14.529Z,7.47
2018-10-21T21:37:44.303Z,7.63
2018-10-21T21:40:14.244Z,7.68
2018-10-21T21:42:44.119Z,7.63
2018-10-21T21:45:13.881Z,7.71
2018-10-21T21:47:43.701Z,7.70
2018-10-21T21:50:13.494Z,7.59
2018-10-21T21:52:43.405Z,7.47
2018-10-21T21:55:13.149Z,7.28
2018-10-21T21:57:42.900Z,7.22
2018-10-21T22:00:15.129Z,7.10
2018-10-21T22:02:45.709Z,7.12
2018-10-21T22:05:15.500Z,7.26
2018-10-21T22:07:45.253Z,7.23
2018-10-21T22:10:15.272Z,7.23
2018-10-21T22:12:45.536Z,7.13
2018-10-21T22:15:15.465Z,7.12
2018-10-21T22:17:45.373Z,6.98
2018-10-21T22:20:15.205Z,6.97
2018-10-21T22:22:45.109Z,6.95
2018-10-21T22:25:15.041Z,6.93
2018-10-21T22:27:44.864Z,6.95
2018-10-21T22:30:14.783Z,6.90
2018-10-21T22:32:44.650Z,6.91
2018-10-21T22:35:14.482Z,6.91
2018-10-21T22:37:44.389Z,6.81
2018-10-21T22:40:14.395Z,6.79
2018-10-21T22:42:44.287Z,6.79
2018-10-21T22:45:14.131Z,6.77
2018-10-21T22:47:43.936Z,6.75
2018-10-21T22:50:13.850Z,6.76
2018-10-21T22:52:44.070Z,6.78
2018-10-21T22:55:13.962Z,6.73
2018-10-21T22:57:43.831Z,6.62
2018-10-21T23:00:14.056Z,6.53
2018-10-21T23:02:44.196Z,6.47
2018-10-21T23:05:13.952Z,6.53
2018-10-21T23:07:43.639Z,6.63
2018-10-21T23:10:13.448Z,6.64
2018-10-21T23:12:43.548Z,6.59
2018-10-21T23:15:13.638Z,6.56
2018-10-21T23:17:43.367Z,6.51
2018-10-21T23:20:13.114Z,6.56
2018-10-21T23:22:42.839Z,6.72
2018-10-21T23:25:12.600Z,6.57
2018-10-21T23:27:42.344Z,6.49
2018-10-21T23:30:12.072Z,6.50
2018-10-21T23:32:42.005Z,6.45
2018-10-21T23:35:11.741Z,6.34
2018-10-21T23:37:41.477Z,6.41
2018-10-21T23:40:11.247Z,6.51
2018-10-21T23:42:41.136Z,6.35
2018-10-21T23:45:10.891Z,6.35
2018-10-21T23:47:41.189Z,6.24
2018-10-21T23:50:10.937Z,6.25
2018-10-21T23:52:40.629Z,6.24
2018-10-21T23:55:10.343Z,6.16
2018-10-21T23:57:40.067Z,6.14
